Aérodrome :
LOGIN :

S'inscrire | Disclaimer

   EN    FR    IT 

 










Légende :    VFR   VFR Marginal   IFR   IFR Intensif   IFR Très Intensif
Visi : 
Plafond : 
>= 8 km
>= 3000ft
5 à 8 km
1000 à 3000 ft
1500m à 5 km
500 à 1000 ft
800 à 1500m
200 à 500 ft
< 800m
< 200 ft
Symboles :   Orages  Brouillard  Fortes neiges  Fortes précipitations  Vent > 20 kt
SIGMETs :   Divers  Orages  Givrage  Turbulence  Onde Orograph.  Cendres Volcan.







- Altitude de l'aérodrome : 87 ft
- Code IATA : FSC
- Voir les cartes d'approche


LFKF - Figari

DERNIER METAR :
  • 160800Z AUTO 23018KT 9999 FEW025 24/16 Q1017 BECMG 24015G25KT

METARs EXPIRÉS :
  • 160730Z AUTO 24018KT 9999 FEW024 23/15 Q1017 BECMG 24015G25KT
  • 160700Z AUTO 25017KT 9999 SCT025 22/15 Q1017 BECMG 24015G25KT
  • 160630Z AUTO 26017KT 9999 FEW025 22/15 Q1016 BECMG 24015G25KT
  • 160600Z AUTO 25017KT CAVOK 21/15 Q1016 BECMG 24015G25KT
  • 160530Z AUTO 24015KT CAVOK 20/15 Q1016 BECMG 24015G25KT

TAF TAF LFKF
Valide du 16 à 03h jusqu'au 17 à 03h UTC


160200Z 1603/1703 22010KT CAVOK
BECMG 1606/1608 24015G25KT
BECMG 1620/1622 VRB02KT
PROB40
TEMPO 1700/1703 BKN006
Pas de NOTAMs connus pour ce terrain.



MET'MAP, la Météo Aéronautique d'un coup d'oeil ! - Copyright ORBIFLY Décembre 2007 - Disclaimer

ORBIFLY MET'MAP TEAM :

Programmation & Développement : Alexandra Zaïnal
Conception & Développement : Baudouin d'Aumeries
Co-Programmation & Développement : Marc-Olivier Méhu
Soutien technique & logistique : Manuel Goepfert

Contact : metmap@orbifly.com




SOURCES & CREDITS :

   NOAA